Time;durP1;ratioP1;P1;durP2;ratioP2;P2;SDS_P1;SDS_P2;PMS_P1;PMS_P2;Temp;Humidity;BMP_temperature;BMP_pressure;BME280_temperature;BME280_humidity;BME280_pressure;Samples;Min_cycle;Max_cycle;Signal;HPM_P1;HPM_P2
2020/12/25 02:54:15;;;;;;;1.33;1.23;;;;;;;;;;4878139;23;21393;-82
2020/12/25 02:57:17;;;;;;;0.97;0.93;;;;;;;;;;4833771;29;20214;-81
2020/12/25 02:59:53;;;;;;;1.20;1.10;;;;;;;;;;4836627;29;20195;-81
2020/12/25 03:07:19;;;;;;;0.80;0.80;;;;;;;;;;5644696;23;20253;-80
2020/12/25 03:09:56;;;;;;;1.20;1.10;;;;;;;;;;4833995;29;20230;-82
2020/12/25 03:18:49;;;;;;;1.07;0.90;;;;;;;;;;5214133;23;20239;-80
2020/12/25 03:21:22;;;;;;;1.03;1.00;;;;;;;;;;4831775;29;20207;-80
2020/12/25 03:23:53;;;;;;;1.10;1.00;;;;;;;;;;4837853;29;20215;-80
2020/12/25 03:26:28;;;;;;;0.90;0.90;;;;;;;;;;4813895;29;20215;-81
2020/12/25 03:29:03;;;;;;;1.20;1.00;;;;;;;;;;4822483;29;20219;-80
2020/12/25 03:31:37;;;;;;;1.77;1.10;;;;;;;;;;4806737;29;20216;-81
2020/12/25 03:34:10;;;;;;;1.20;1.10;;;;;;;;;;4811157;29;20216;-81
2020/12/25 03:36:45;;;;;;;0.90;0.90;;;;;;;;;;4811570;29;20222;-81
2020/12/25 03:39:19;;;;;;;1.10;1.00;;;;;;;;;;4797847;29;20209;-80
2020/12/25 03:45:32;;;;;;;1.20;1.10;;;;;;;;;;5548706;23;20234;-81
2020/12/25 03:48:04;;;;;;;1.00;0.90;;;;;;;;;;4829075;29;20205;-81
2020/12/25 03:50:35;;;;;;;1.37;1.27;;;;;;;;;;4829256;29;20223;-82
2020/12/25 03:53:06;;;;;;;1.17;1.07;;;;;;;;;;4827012;29;20748;-82
2020/12/25 03:55:38;;;;;;;1.50;1.40;;;;;;;;;;4827191;29;20214;-82
2020/12/25 03:58:10;;;;;;;1.57;1.40;;;;;;;;;;4811572;29;20214;-82
2020/12/25 04:00:41;;;;;;;1.20;1.00;;;;;;;;;;4813433;29;20203;-81
2020/12/25 04:03:13;;;;;;;1.10;1.00;;;;;;;;;;4823942;29;20231;-81
2020/12/25 04:05:45;;;;;;;1.00;0.97;;;;;;;;;;4830243;29;20207;-81
2020/12/25 04:08:16;;;;;;;1.30;1.20;;;;;;;;;;4826035;29;20219;-81
2020/12/25 04:10:53;;;;;;;1.37;1.27;;;;;;;;;;4830058;29;20222;-81
2020/12/25 04:17:01;;;;;;;2.90;1.30;;;;;;;;;;4843646;29;20219;-81
2020/12/25 04:19:32;;;;;;;1.60;1.27;;;;;;;;;;4829244;29;20207;-81
2020/12/25 04:22:03;;;;;;;1.30;1.20;;;;;;;;;;4823435;29;20238;-81
2020/12/25 04:24:33;;;;;;;2.07;1.60;;;;;;;;;;4810411;29;20219;-82
2020/12/25 04:27:03;;;;;;;1.30;1.20;;;;;;;;;;4817660;29;20213;-82
2020/12/25 04:29:34;;;;;;;1.47;1.37;;;;;;;;;;4811893;29;20233;-81
2020/12/25 04:38:27;;;;;;;4.87;1.53;;;;;;;;;;4981400;23;20250;-81
2020/12/25 04:41:08;;;;;;;1.20;1.10;;;;;;;;;;4826518;29;20204;-81
2020/12/25 04:43:41;;;;;;;1.60;1.50;;;;;;;;;;4822738;29;20231;-81
2020/12/25 04:46:11;;;;;;;2.03;1.47;;;;;;;;;;4812105;29;20208;-81
2020/12/25 04:48:43;;;;;;;1.23;1.13;;;;;;;;;;4811189;29;20212;-81
2020/12/25 04:51:15;;;;;;;1.50;1.30;;;;;;;;;;4821195;29;20231;-81
2020/12/25 04:53:56;;;;;;;1.70;1.50;;;;;;;;;;4828802;29;20255;-81
2020/12/25 04:57:02;;;;;;;1.50;1.40;;;;;;;;;;4829529;29;20212;-82
2020/12/25 04:59:48;;;;;;;1.73;1.60;;;;;;;;;;4805996;29;20204;-81
2020/12/25 05:02:26;;;;;;;1.40;1.30;;;;;;;;;;4831732;29;20238;-81
2020/12/25 05:05:00;;;;;;;1.70;1.60;;;;;;;;;;4834113;29;20203;-81
2020/12/25 05:07:35;;;;;;;1.40;1.30;;;;;;;;;;4831239;29;20208;-80
2020/12/25 05:10:15;;;;;;;1.60;1.43;;;;;;;;;;4814100;29;20231;-81
2020/12/25 05:20:30;;;;;;;2.73;1.67;;;;;;;;;;5883856;23;20194;31
2020/12/25 05:37:04;;;;;;;2.50;2.03;;;;;;;;;;5906582;23;20182;31
2020/12/25 05:39:36;;;;;;;2.20;1.90;;;;;;;;;;4823451;29;20215;-81
2020/12/25 05:55:45;;;;;;;2.20;2.00;;;;;;;;;;5715137;23;22488;-80
2020/12/25 05:58:17;;;;;;;3.37;2.33;;;;;;;;;;4827429;29;20195;-82
2020/12/25 06:00:48;;;;;;;2.50;2.13;;;;;;;;;;4809350;29;20318;-82
2020/12/25 06:03:19;;;;;;;2.90;2.00;;;;;;;;;;4793293;29;20228;-83
2020/12/25 06:05:52;;;;;;;2.57;2.33;;;;;;;;;;4805187;29;20208;-82
2020/12/25 06:08:37;;;;;;;2.07;1.87;;;;;;;;;;4806406;29;20204;-82
2020/12/25 06:11:18;;;;;;;2.27;1.87;;;;;;;;;;4808624;29;20224;-82
2020/12/25 06:13:54;;;;;;;3.43;2.20;;;;;;;;;;4809089;29;20192;-82
2020/12/25 06:16:40;;;;;;;2.20;2.00;;;;;;;;;;4808660;29;20211;-82
2020/12/25 06:19:18;;;;;;;2.57;2.17;;;;;;;;;;4807891;29;20679;-82
2020/12/25 06:25:06;;;;;;;2.00;1.90;;;;;;;;;;5047454;23;20235;-81
2020/12/25 06:27:59;;;;;;;3.03;2.30;;;;;;;;;;4817905;29;20206;-82
2020/12/25 06:47:34;;;;;;;2.60;2.40;;;;;;;;;;5802233;23;20186;-81
2020/12/25 06:50:23;;;;;;;2.40;2.20;;;;;;;;;;4852279;29;20227;-82
2020/12/25 06:57:31;;;;;;;3.27;2.43;;;;;;;;;;4859023;29;20536;-82
2020/12/25 07:00:17;;;;;;;2.77;2.23;;;;;;;;;;4851750;29;20207;-82
2020/12/25 07:03:13;;;;;;;2.50;2.10;;;;;;;;;;4834848;29;20234;-81
2020/12/25 07:46:16;;;;;;;2.40;2.20;;;;;;;;;;5070909;23;20239;-81
2020/12/25 07:48:50;;;;;;;2.50;2.10;;;;;;;;;;4831805;29;20210;-81
2020/12/25 08:03:58;;;;;;;3.37;2.60;;;;;;;;;;4791305;29;20213;-82
2020/12/25 08:06:33;;;;;;;3.47;2.33;;;;;;;;;;4791813;30;20205;-82
2020/12/25 08:09:08;;;;;;;3.50;2.10;;;;;;;;;;4773208;30;20216;-82
2020/12/25 08:11:51;;;;;;;4.40;2.37;;;;;;;;;;4774491;30;20577;-82
2020/12/25 08:14:56;;;;;;;4.53;2.43;;;;;;;;;;4779232;30;20217;-82
2020/12/25 08:18:31;;;;;;;3.23;2.33;;;;;;;;;;4780840;30;20202;-82
2020/12/25 08:21:17;;;;;;;2.50;2.30;;;;;;;;;;4777149;30;20201;-82
2020/12/25 08:27:50;;;;;;;3.23;2.07;;;;;;;;;;4760623;30;20201;-82
2020/12/25 08:30:32;;;;;;;3.17;2.27;;;;;;;;;;4787493;30;20232;-81
2020/12/25 11:06:39;;;;;;;2.37;1.97;;;;;;;;;;4966071;24;20231;-82
2020/12/25 11:09:12;;;;;;;3.43;1.83;;;;;;;;;;4846767;29;20218;-82
2020/12/25 11:11:43;;;;;;;2.43;1.83;;;;;;;;;;4826826;29;20239;-82
2020/12/25 11:18:34;;;;;;;2.77;2.33;;;;;;;;;;4836354;29;20176;-81
2020/12/25 11:21:05;;;;;;;2.93;2.07;;;;;;;;;;4829014;29;20200;-82
2020/12/25 13:23:52;;;;;;;1.80;1.70;;;;;;;;;;5336916;23;20245;-79
2020/12/25 13:26:24;;;;;;;2.07;1.80;;;;;;;;;;4849827;29;20217;-79
2020/12/25 13:28:55;;;;;;;1.70;1.60;;;;;;;;;;4841554;29;20195;-81
2020/12/25 13:54:03;;;;;;;2.50;1.70;;;;;;;;;;5207283;23;20238;-80
2020/12/25 13:56:36;;;;;;;1.93;1.70;;;;;;;;;;4826959;29;20210;-83
2020/12/25 13:59:06;;;;;;;2.10;1.53;;;;;;;;;;4842524;29;20218;-83
2020/12/25 16:19:21;;;;;;;2.80;2.00;;;;;;;;;;4995043;23;20264;-78
2020/12/25 16:22:13;;;;;;;2.23;1.70;;;;;;;;;;4838980;29;20722;-79
2020/12/25 16:24:45;;;;;;;1.57;1.43;;;;;;;;;;4831116;29;20220;-82
2020/12/25 16:27:17;;;;;;;4.57;1.80;;;;;;;;;;4834134;29;20464;-80
2020/12/25 16:40:05;;;;;;;3.03;1.80;;;;;;;;;;4846942;23;20242;-81
2020/12/25 18:15:23;;;;;;;2.40;1.97;;;;;;;;;;5566594;23;20254;-81
2020/12/25 18:17:54;;;;;;;3.67;1.93;;;;;;;;;;4841973;29;20237;-81
2020/12/25 18:20:37;;;;;;;2.10;1.90;;;;;;;;;;4823377;29;20207;-81
2020/12/25 18:23:09;;;;;;;2.37;1.50;;;;;;;;;;4823163;29;20231;-80
2020/12/25 18:25:42;;;;;;;1.63;1.47;;;;;;;;;;4815676;29;20210;-81
2020/12/25 18:28:14;;;;;;;4.33;2.13;;;;;;;;;;4818452;29;20210;-81
2020/12/25 18:30:47;;;;;;;2.80;1.87;;;;;;;;;;4812517;29;20560;-81
2020/12/25 18:45:43;;;;;;;1.67;1.17;;;;;;;;;;4809687;29;20570;-80
2020/12/25 18:48:16;;;;;;;1.90;1.43;;;;;;;;;;4822834;29;20605;-81
2020/12/25 18:58:43;;;;;;;1.60;1.50;;;;;;;;;;4843966;29;20223;-81
2020/12/25 19:01:16;;;;;;;3.20;1.80;;;;;;;;;;4826451;29;20560;-80
2020/12/25 19:03:51;;;;;;;3.63;1.43;;;;;;;;;;4815253;29;20218;-81
2020/12/25 19:06:23;;;;;;;3.03;1.50;;;;;;;;;;4829090;29;20317;-81
2020/12/25 19:16:36;;;;;;;1.73;1.43;;;;;;;;;;5502502;23;20238;-80
2020/12/25 19:19:08;;;;;;;2.47;1.57;;;;;;;;;;4829201;29;20211;-80
2020/12/25 19:22:01;;;;;;;1.87;1.37;;;;;;;;;;4826778;29;20845;-80
2020/12/25 19:28:52;;;;;;;1.67;1.40;;;;;;;;;;4837205;29;20200;-80
2020/12/25 19:31:51;;;;;;;1.87;1.33;;;;;;;;;;4810831;29;20576;-80
2020/12/25 19:34:24;;;;;;;2.00;1.43;;;;;;;;;;4809464;29;20253;-80
2020/12/25 19:37:01;;;;;;;2.43;1.40;;;;;;;;;;4807737;29;20204;-80
2020/12/25 19:39:32;;;;;;;2.00;1.50;;;;;;;;;;4799578;29;20219;-80
2020/12/25 19:48:25;;;;;;;1.40;1.30;;;;;;;;;;4896859;23;20242;-80
2020/12/25 19:50:58;;;;;;;1.50;1.20;;;;;;;;;;4827336;29;20199;-80
2020/12/25 20:22:19;;;;;;;2.47;1.23;;;;;;;;;;5297184;23;20254;-80
2020/12/25 20:25:07;;;;;;;3.33;1.47;;;;;;;;;;4822470;29;20220;-81
2020/12/25 20:27:43;;;;;;;1.57;1.10;;;;;;;;;;4820219;29;20213;-80
2020/12/25 20:30:20;;;;;;;2.23;1.30;;;;;;;;;;4822365;29;20212;-81
2020/12/25 20:37:45;;;;;;;1.20;1.10;;;;;;;;;;4791586;29;20209;-80
2020/12/25 20:40:22;;;;;;;1.70;1.43;;;;;;;;;;4801960;29;20697;-81
2020/12/25 20:42:57;;;;;;;1.80;1.30;;;;;;;;;;4806507;29;20224;-80
2020/12/25 20:45:34;;;;;;;3.30;1.40;;;;;;;;;;4802696;29;20216;-81
2020/12/25 20:48:18;;;;;;;1.93;1.40;;;;;;;;;;4822579;29;20207;-80
2020/12/25 20:51:05;;;;;;;2.60;1.30;;;;;;;;;;4819621;29;20218;-80
2020/12/25 20:53:44;;;;;;;5.77;2.13;;;;;;;;;;4807405;29;20256;-81
2020/12/25 20:56:19;;;;;;;1.97;1.50;;;;;;;;;;4814812;29;20213;-81
2020/12/25 20:58:53;;;;;;;3.53;1.63;;;;;;;;;;4808083;29;20214;-80
2020/12/25 21:01:26;;;;;;;2.77;1.53;;;;;;;;;;4821371;29;20239;-81
2020/12/25 21:04:01;;;;;;;1.80;1.27;;;;;;;;;;4822528;29;20211;-80
2020/12/25 21:06:35;;;;;;;3.17;1.20;;;;;;;;;;4819407;29;20210;-81
2020/12/25 21:09:16;;;;;;;1.77;1.20;;;;;;;;;;4822717;29;20630;-81
2020/12/25 21:11:52;;;;;;;1.60;1.10;;;;;;;;;;4821457;29;20616;-81
2020/12/25 21:14:38;;;;;;;1.33;1.10;;;;;;;;;;4806988;29;20220;-81
2020/12/25 21:17:27;;;;;;;1.53;1.20;;;;;;;;;;4833467;29;20212;-81
2020/12/25 21:25:15;;;;;;;1.20;1.10;;;;;;;;;;4814254;29;20215;-81
2020/12/25 21:27:57;;;;;;;1.67;1.30;;;;;;;;;;4793028;29;20216;-81
